sensor_id;sensor_type;location;lat;lon;timestamp;P1;durP1;ratioP1;P2;durP2;ratioP2
11305;SDS011;5708;50.660;6.778;2023-04-25T00:02:16;15.27;;;7.18;;
11305;SDS011;5708;50.660;6.778;2023-04-25T00:04:42;12.38;;;6.63;;
11305;SDS011;5708;50.660;6.778;2023-04-25T00:07:08;15.98;;;7.00;;
11305;SDS011;5708;50.660;6.778;2023-04-25T00:09:34;13.43;;;6.70;;
11305;SDS011;5708;50.660;6.778;2023-04-25T00:11:59;16.67;;;6.72;;
11305;SDS011;5708;50.660;6.778;2023-04-25T00:14:26;16.05;;;7.55;;
11305;SDS011;5708;50.660;6.778;2023-04-25T00:16:52;18.23;;;6.90;;
11305;SDS011;5708;50.660;6.778;2023-04-25T00:19:19;14.52;;;7.22;;
11305;SDS011;5708;50.660;6.778;2023-04-25T00:21:44;13.30;;;7.30;;
11305;SDS011;5708;50.660;6.778;2023-04-25T00:24:11;13.10;;;6.72;;
11305;SDS011;5708;50.660;6.778;2023-04-25T00:26:37;14.75;;;7.03;;
11305;SDS011;5708;50.660;6.778;2023-04-25T00:29:03;13.43;;;7.40;;
11305;SDS011;5708;50.660;6.778;2023-04-25T00:31:28;15.15;;;7.25;;
11305;SDS011;5708;50.660;6.778;2023-04-25T00:33:54;14.40;;;7.50;;
11305;SDS011;5708;50.660;6.778;2023-04-25T00:36:23;12.95;;;7.75;;
11305;SDS011;5708;50.660;6.778;2023-04-25T00:38:48;14.73;;;7.80;;
11305;SDS011;5708;50.660;6.778;2023-04-25T00:41:13;12.55;;;7.35;;
11305;SDS011;5708;50.660;6.778;2023-04-25T00:43:39;16.95;;;8.20;;
11305;SDS011;5708;50.660;6.778;2023-04-25T00:46:08;15.85;;;8.68;;
11305;SDS011;5708;50.660;6.778;2023-04-25T00:48:33;16.58;;;8.38;;
11305;SDS011;5708;50.660;6.778;2023-04-25T00:50:59;17.90;;;8.68;;
11305;SDS011;5708;50.660;6.778;2023-04-25T00:53:27;18.90;;;8.30;;
11305;SDS011;5708;50.660;6.778;2023-04-25T00:55:53;17.23;;;8.68;;
11305;SDS011;5708;50.660;6.778;2023-04-25T00:58:22;15.43;;;8.13;;
11305;SDS011;5708;50.660;6.778;2023-04-25T01:00:49;15.50;;;8.23;;
11305;SDS011;5708;50.660;6.778;2023-04-25T01:03:15;16.88;;;8.05;;
11305;SDS011;5708;50.660;6.778;2023-04-25T01:05:42;16.48;;;7.47;;
11305;SDS011;5708;50.660;6.778;2023-04-25T01:08:08;18.30;;;7.85;;
11305;SDS011;5708;50.660;6.778;2023-04-25T01:10:33;17.52;;;8.07;;
11305;SDS011;5708;50.660;6.778;2023-04-25T01:12:59;12.88;;;6.72;;
11305;SDS011;5708;50.660;6.778;2023-04-25T01:15:24;16.67;;;7.78;;
11305;SDS011;5708;50.660;6.778;2023-04-25T01:17:50;20.02;;;8.18;;
11305;SDS011;5708;50.660;6.778;2023-04-25T01:20:15;19.45;;;8.32;;
11305;SDS011;5708;50.660;6.778;2023-04-25T01:22:42;16.40;;;7.90;;
11305;SDS011;5708;50.660;6.778;2023-04-25T01:25:08;15.27;;;7.20;;
11305;SDS011;5708;50.660;6.778;2023-04-25T01:27:35;20.50;;;8.90;;
11305;SDS011;5708;50.660;6.778;2023-04-25T01:30:01;18.48;;;7.70;;
11305;SDS011;5708;50.660;6.778;2023-04-25T01:32:26;17.30;;;8.10;;
11305;SDS011;5708;50.660;6.778;2023-04-25T01:34:52;16.08;;;8.20;;
11305;SDS011;5708;50.660;6.778;2023-04-25T01:37:17;19.27;;;7.75;;
11305;SDS011;5708;50.660;6.778;2023-04-25T01:39:43;15.90;;;8.43;;
11305;SDS011;5708;50.660;6.778;2023-04-25T01:42:08;16.48;;;7.95;;
11305;SDS011;5708;50.660;6.778;2023-04-25T01:44:34;15.38;;;7.53;;
11305;SDS011;5708;50.660;6.778;2023-04-25T01:46:59;17.85;;;8.18;;
11305;SDS011;5708;50.660;6.778;2023-04-25T01:49:24;15.10;;;7.18;;
11305;SDS011;5708;50.660;6.778;2023-04-25T01:51:50;14.25;;;7.10;;
11305;SDS011;5708;50.660;6.778;2023-04-25T01:54:15;15.32;;;7.38;;
11305;SDS011;5708;50.660;6.778;2023-04-25T01:56:41;15.63;;;7.50;;
11305;SDS011;5708;50.660;6.778;2023-04-25T01:59:06;16.95;;;7.80;;
11305;SDS011;5708;50.660;6.778;2023-04-25T02:01:32;15.38;;;8.10;;
11305;SDS011;5708;50.660;6.778;2023-04-25T02:03:57;17.17;;;8.27;;
11305;SDS011;5708;50.660;6.778;2023-04-25T02:06:23;16.92;;;8.05;;
11305;SDS011;5708;50.660;6.778;2023-04-25T02:08:48;18.33;;;8.43;;
11305;SDS011;5708;50.660;6.778;2023-04-25T02:11:13;16.13;;;7.85;;
11305;SDS011;5708;50.660;6.778;2023-04-25T02:13:39;16.80;;;7.57;;
11305;SDS011;5708;50.660;6.778;2023-04-25T02:16:04;18.73;;;7.97;;
11305;SDS011;5708;50.660;6.778;2023-04-25T02:18:30;19.75;;;7.68;;
11305;SDS011;5708;50.660;6.778;2023-04-25T02:20:57;17.83;;;7.75;;
11305;SDS011;5708;50.660;6.778;2023-04-25T02:23:23;18.80;;;7.65;;
11305;SDS011;5708;50.660;6.778;2023-04-25T02:25:49;17.42;;;7.93;;
11305;SDS011;5708;50.660;6.778;2023-04-25T02:28:14;20.98;;;8.55;;
11305;SDS011;5708;50.660;6.778;2023-04-25T02:30:40;20.27;;;8.30;;
11305;SDS011;5708;50.660;6.778;2023-04-25T02:33:06;16.63;;;8.15;;
11305;SDS011;5708;50.660;6.778;2023-04-25T02:35:31;24.92;;;8.48;;
11305;SDS011;5708;50.660;6.778;2023-04-25T02:37:56;17.63;;;7.70;;
11305;SDS011;5708;50.660;6.778;2023-04-25T02:40:22;19.90;;;8.65;;
11305;SDS011;5708;50.660;6.778;2023-04-25T02:42:47;22.63;;;8.95;;
11305;SDS011;5708;50.660;6.778;2023-04-25T02:45:12;24.23;;;9.20;;
11305;SDS011;5708;50.660;6.778;2023-04-25T02:47:38;18.27;;;7.57;;
11305;SDS011;5708;50.660;6.778;2023-04-25T02:50:03;19.40;;;8.38;;
11305;SDS011;5708;50.660;6.778;2023-04-25T02:52:29;18.50;;;7.97;;
11305;SDS011;5708;50.660;6.778;2023-04-25T02:54:55;20.98;;;8.80;;
11305;SDS011;5708;50.660;6.778;2023-04-25T02:57:20;17.00;;;7.55;;
11305;SDS011;5708;50.660;6.778;2023-04-25T02:59:46;22.35;;;7.85;;
11305;SDS011;5708;50.660;6.778;2023-04-25T03:02:11;19.45;;;7.85;;
11305;SDS011;5708;50.660;6.778;2023-04-25T03:04:37;24.55;;;8.85;;
11305;SDS011;5708;50.660;6.778;2023-04-25T03:07:02;20.63;;;8.25;;
11305;SDS011;5708;50.660;6.778;2023-04-25T03:09:28;20.63;;;8.00;;
11305;SDS011;5708;50.660;6.778;2023-04-25T03:11:53;15.40;;;7.25;;
11305;SDS011;5708;50.660;6.778;2023-04-25T03:14:18;21.27;;;8.57;;
11305;SDS011;5708;50.660;6.778;2023-04-25T03:16:44;24.45;;;7.95;;
11305;SDS011;5708;50.660;6.778;2023-04-25T03:19:10;21.85;;;8.15;;
11305;SDS011;5708;50.660;6.778;2023-04-25T03:21:35;20.98;;;8.23;;
11305;SDS011;5708;50.660;6.778;2023-04-25T03:24:02;24.35;;;8.57;;
11305;SDS011;5708;50.660;6.778;2023-04-25T03:26:28;22.27;;;8.45;;
11305;SDS011;5708;50.660;6.778;2023-04-25T03:28:53;22.58;;;8.20;;
11305;SDS011;5708;50.660;6.778;2023-04-25T03:31:19;23.67;;;8.77;;
11305;SDS011;5708;50.660;6.778;2023-04-25T03:33:45;17.63;;;7.65;;
11305;SDS011;5708;50.660;6.778;2023-04-25T03:36:10;23.67;;;8.43;;
11305;SDS011;5708;50.660;6.778;2023-04-25T03:38:35;25.15;;;8.10;;
11305;SDS011;5708;50.660;6.778;2023-04-25T03:41:01;24.40;;;7.90;;
11305;SDS011;5708;50.660;6.778;2023-04-25T03:43:27;20.42;;;7.18;;
11305;SDS011;5708;50.660;6.778;2023-04-25T03:45:52;28.40;;;9.60;;
11305;SDS011;5708;50.660;6.778;2023-04-25T03:48:17;21.50;;;7.38;;
11305;SDS011;5708;50.660;6.778;2023-04-25T03:50:44;23.67;;;7.85;;
11305;SDS011;5708;50.660;6.778;2023-04-25T03:53:12;16.40;;;6.93;;
11305;SDS011;5708;50.660;6.778;2023-04-25T03:55:38;20.10;;;7.05;;
11305;SDS011;5708;50.660;6.778;2023-04-25T03:58:03;16.23;;;6.82;;
11305;SDS011;5708;50.660;6.778;2023-04-25T04:00:28;22.83;;;8.20;;
11305;SDS011;5708;50.660;6.778;2023-04-25T04:02:54;19.58;;;7.57;;
11305;SDS011;5708;50.660;6.778;2023-04-25T04:05:20;23.60;;;7.30;;
11305;SDS011;5708;50.660;6.778;2023-04-25T04:07:45;18.38;;;7.78;;
11305;SDS011;5708;50.660;6.778;2023-04-25T04:10:10;26.15;;;7.82;;
11305;SDS011;5708;50.660;6.778;2023-04-25T04:12:36;23.73;;;7.43;;
11305;SDS011;5708;50.660;6.778;2023-04-25T04:15:02;17.75;;;7.45;;
11305;SDS011;5708;50.660;6.778;2023-04-25T04:17:29;23.40;;;7.80;;
11305;SDS011;5708;50.660;6.778;2023-04-25T04:19:54;21.50;;;7.55;;
11305;SDS011;5708;50.660;6.778;2023-04-25T04:22:20;22.85;;;7.68;;
11305;SDS011;5708;50.660;6.778;2023-04-25T04:24:45;22.63;;;7.00;;
11305;SDS011;5708;50.660;6.778;2023-04-25T04:27:13;26.13;;;8.15;;
11305;SDS011;5708;50.660;6.778;2023-04-25T04:29:38;20.58;;;7.65;;
11305;SDS011;5708;50.660;6.778;2023-04-25T04:32:04;27.75;;;7.43;;
11305;SDS011;5708;50.660;6.778;2023-04-25T04:34:29;27.30;;;7.30;;
11305;SDS011;5708;50.660;6.778;2023-04-25T04:36:56;22.98;;;7.78;;
11305;SDS011;5708;50.660;6.778;2023-04-25T04:39:21;21.88;;;7.45;;
11305;SDS011;5708;50.660;6.778;2023-04-25T04:41:47;22.75;;;7.57;;
11305;SDS011;5708;50.660;6.778;2023-04-25T04:44:12;19.42;;;7.07;;
11305;SDS011;5708;50.660;6.778;2023-04-25T04:46:39;25.42;;;7.63;;
11305;SDS011;5708;50.660;6.778;2023-04-25T04:49:10;29.00;;;7.68;;
11305;SDS011;5708;50.660;6.778;2023-04-25T04:51:41;22.83;;;7.22;;
11305;SDS011;5708;50.660;6.778;2023-04-25T04:54:09;24.48;;;7.45;;
11305;SDS011;5708;50.660;6.778;2023-04-25T04:56:34;18.30;;;7.13;;
11305;SDS011;5708;50.660;6.778;2023-04-25T04:59:00;21.40;;;7.05;;
11305;SDS011;5708;50.660;6.778;2023-04-25T05:01:26;22.20;;;7.55;;
11305;SDS011;5708;50.660;6.778;2023-04-25T05:03:52;20.98;;;7.30;;
11305;SDS011;5708;50.660;6.778;2023-04-25T05:06:18;22.27;;;7.28;;
11305;SDS011;5708;50.660;6.778;2023-04-25T05:08:44;23.27;;;7.88;;
11305;SDS011;5708;50.660;6.778;2023-04-25T05:11:09;26.15;;;7.00;;
11305;SDS011;5708;50.660;6.778;2023-04-25T05:13:35;21.13;;;6.65;;
11305;SDS011;5708;50.660;6.778;2023-04-25T05:16:00;25.50;;;7.30;;
11305;SDS011;5708;50.660;6.778;2023-04-25T05:18:25;21.65;;;6.80;;
11305;SDS011;5708;50.660;6.778;2023-04-25T05:20:51;28.75;;;8.07;;
11305;SDS011;5708;50.660;6.778;2023-04-25T05:23:16;24.08;;;6.97;;
11305;SDS011;5708;50.660;6.778;2023-04-25T05:25:42;20.77;;;7.20;;
11305;SDS011;5708;50.660;6.778;2023-04-25T05:28:07;21.70;;;6.95;;
11305;SDS011;5708;50.660;6.778;2023-04-25T05:30:33;21.50;;;7.05;;
11305;SDS011;5708;50.660;6.778;2023-04-25T05:32:59;22.58;;;7.00;;
11305;SDS011;5708;50.660;6.778;2023-04-25T05:35:25;23.63;;;6.93;;
11305;SDS011;5708;50.660;6.778;2023-04-25T05:37:51;21.27;;;6.70;;
11305;SDS011;5708;50.660;6.778;2023-04-25T05:40:16;17.80;;;6.88;;
11305;SDS011;5708;50.660;6.778;2023-04-25T05:42:41;24.15;;;7.43;;
11305;SDS011;5708;50.660;6.778;2023-04-25T05:45:07;21.08;;;6.53;;
11305;SDS011;5708;50.660;6.778;2023-04-25T05:47:32;25.38;;;6.28;;
11305;SDS011;5708;50.660;6.778;2023-04-25T05:49:58;23.58;;;6.95;;
11305;SDS011;5708;50.660;6.778;2023-04-25T05:52:23;19.23;;;7.28;;
11305;SDS011;5708;50.660;6.778;2023-04-25T05:54:48;27.05;;;6.57;;
11305;SDS011;5708;50.660;6.778;2023-04-25T05:57:21;23.05;;;6.57;;
11305;SDS011;5708;50.660;6.778;2023-04-25T05:59:47;23.30;;;6.50;;
11305;SDS011;5708;50.660;6.778;2023-04-25T06:02:13;22.90;;;7.03;;
11305;SDS011;5708;50.660;6.778;2023-04-25T06:04:38;21.17;;;6.55;;
11305;SDS011;5708;50.660;6.778;2023-04-25T06:07:03;27.15;;;6.25;;
11305;SDS011;5708;50.660;6.778;2023-04-25T06:09:29;26.77;;;6.38;;
11305;SDS011;5708;50.660;6.778;2023-04-25T06:11:54;21.52;;;6.03;;
11305;SDS011;5708;50.660;6.778;2023-04-25T06:14:20;25.05;;;7.35;;
11305;SDS011;5708;50.660;6.778;2023-04-25T06:16:45;30.13;;;7.10;;
11305;SDS011;5708;50.660;6.778;2023-04-25T06:19:11;31.15;;;6.95;;
11305;SDS011;5708;50.660;6.778;2023-04-25T06:21:36;29.13;;;6.53;;
11305;SDS011;5708;50.660;6.778;2023-04-25T06:24:01;26.17;;;7.50;;
11305;SDS011;5708;50.660;6.778;2023-04-25T06:26:27;21.33;;;5.90;;
11305;SDS011;5708;50.660;6.778;2023-04-25T06:28:55;23.15;;;6.35;;
11305;SDS011;5708;50.660;6.778;2023-04-25T06:31:21;21.05;;;6.38;;
11305;SDS011;5708;50.660;6.778;2023-04-25T06:33:46;22.75;;;6.10;;
11305;SDS011;5708;50.660;6.778;2023-04-25T06:36:13;26.30;;;5.93;;
11305;SDS011;5708;50.660;6.778;2023-04-25T06:38:38;20.02;;;5.25;;
11305;SDS011;5708;50.660;6.778;2023-04-25T06:41:04;24.95;;;6.45;;
11305;SDS011;5708;50.660;6.778;2023-04-25T06:43:29;21.08;;;5.78;;
11305;SDS011;5708;50.660;6.778;2023-04-25T06:45:58;25.50;;;6.25;;
11305;SDS011;5708;50.660;6.778;2023-04-25T06:48:24;20.70;;;6.93;;
11305;SDS011;5708;50.660;6.778;2023-04-25T06:50:49;25.13;;;5.88;;
11305;SDS011;5708;50.660;6.778;2023-04-25T06:53:14;22.08;;;6.60;;
11305;SDS011;5708;50.660;6.778;2023-04-25T06:55:40;17.60;;;5.35;;
11305;SDS011;5708;50.660;6.778;2023-04-25T06:58:05;24.27;;;5.53;;
11305;SDS011;5708;50.660;6.778;2023-04-25T07:00:32;20.00;;;5.97;;
11305;SDS011;5708;50.660;6.778;2023-04-25T07:02:58;23.95;;;5.78;;
11305;SDS011;5708;50.660;6.778;2023-04-25T07:05:23;26.45;;;5.63;;
11305;SDS011;5708;50.660;6.778;2023-04-25T07:07:49;16.13;;;4.95;;
11305;SDS011;5708;50.660;6.778;2023-04-25T07:10:14;18.13;;;5.72;;
11305;SDS011;5708;50.660;6.778;2023-04-25T07:12:40;20.75;;;4.97;;
11305;SDS011;5708;50.660;6.778;2023-04-25T07:15:06;20.20;;;5.53;;
11305;SDS011;5708;50.660;6.778;2023-04-25T07:17:33;20.67;;;5.20;;
11305;SDS011;5708;50.660;6.778;2023-04-25T07:19:58;12.35;;;3.90;;
11305;SDS011;5708;50.660;6.778;2023-04-25T07:22:24;18.02;;;4.57;;
11305;SDS011;5708;50.660;6.778;2023-04-25T07:24:51;18.48;;;5.13;;
11305;SDS011;5708;50.660;6.778;2023-04-25T07:27:18;20.10;;;4.93;;
11305;SDS011;5708;50.660;6.778;2023-04-25T07:29:43;20.80;;;5.65;;
11305;SDS011;5708;50.660;6.778;2023-04-25T07:32:09;25.70;;;5.72;;
11305;SDS011;5708;50.660;6.778;2023-04-25T07:34:37;19.58;;;5.50;;
11305;SDS011;5708;50.660;6.778;2023-04-25T07:37:03;15.40;;;5.10;;
11305;SDS011;5708;50.660;6.778;2023-04-25T07:39:29;18.95;;;5.60;;
11305;SDS011;5708;50.660;6.778;2023-04-25T07:41:54;16.95;;;5.25;;
11305;SDS011;5708;50.660;6.778;2023-04-25T07:44:20;16.85;;;5.03;;
11305;SDS011;5708;50.660;6.778;2023-04-25T07:46:45;22.05;;;5.78;;
11305;SDS011;5708;50.660;6.778;2023-04-25T07:49:10;20.80;;;5.65;;
11305;SDS011;5708;50.660;6.778;2023-04-25T07:51:36;28.92;;;6.45;;
11305;SDS011;5708;50.660;6.778;2023-04-25T07:54:01;17.58;;;5.20;;
11305;SDS011;5708;50.660;6.778;2023-04-25T07:56:27;23.33;;;5.28;;
11305;SDS011;5708;50.660;6.778;2023-04-25T07:58:53;24.92;;;5.35;;
11305;SDS011;5708;50.660;6.778;2023-04-25T08:01:18;17.77;;;4.75;;
11305;SDS011;5708;50.660;6.778;2023-04-25T08:03:46;17.42;;;4.38;;
11305;SDS011;5708;50.660;6.778;2023-04-25T08:06:11;20.00;;;4.28;;
11305;SDS011;5708;50.660;6.778;2023-04-25T08:08:37;14.00;;;3.97;;
11305;SDS011;5708;50.660;6.778;2023-04-25T08:11:02;16.35;;;4.85;;
11305;SDS011;5708;50.660;6.778;2023-04-25T08:13:28;17.67;;;4.30;;
11305;SDS011;5708;50.660;6.778;2023-04-25T08:15:56;17.30;;;4.95;;
11305;SDS011;5708;50.660;6.778;2023-04-25T08:18:22;20.60;;;6.07;;
11305;SDS011;5708;50.660;6.778;2023-04-25T08:20:50;19.10;;;4.93;;
11305;SDS011;5708;50.660;6.778;2023-04-25T08:23:15;21.20;;;4.90;;
11305;SDS011;5708;50.660;6.778;2023-04-25T08:25:41;16.60;;;3.70;;
11305;SDS011;5708;50.660;6.778;2023-04-25T08:28:06;13.02;;;3.28;;
11305;SDS011;5708;50.660;6.778;2023-04-25T08:30:32;15.10;;;3.50;;
11305;SDS011;5708;50.660;6.778;2023-04-25T08:32:57;11.57;;;3.60;;
11305;SDS011;5708;50.660;6.778;2023-04-25T08:35:22;14.25;;;3.85;;
11305;SDS011;5708;50.660;6.778;2023-04-25T08:37:48;16.35;;;4.13;;
11305;SDS011;5708;50.660;6.778;2023-04-25T08:40:14;14.43;;;3.70;;
11305;SDS011;5708;50.660;6.778;2023-04-25T08:42:43;16.15;;;3.92;;
11305;SDS011;5708;50.660;6.778;2023-04-25T08:45:09;12.38;;;4.05;;
11305;SDS011;5708;50.660;6.778;2023-04-25T08:47:35;16.83;;;4.45;;
11305;SDS011;5708;50.660;6.778;2023-04-25T08:50:03;16.10;;;3.85;;
11305;SDS011;5708;50.660;6.778;2023-04-25T08:52:32;14.25;;;3.63;;
11305;SDS011;5708;50.660;6.778;2023-04-25T08:55:02;15.65;;;3.60;;
11305;SDS011;5708;50.660;6.778;2023-04-25T08:57:28;17.35;;;4.22;;
11305;SDS011;5708;50.660;6.778;2023-04-25T08:59:55;22.30;;;4.88;;
11305;SDS011;5708;50.660;6.778;2023-04-25T09:02:21;18.00;;;4.15;;
11305;SDS011;5708;50.660;6.778;2023-04-25T09:04:47;16.38;;;4.55;;
11305;SDS011;5708;50.660;6.778;2023-04-25T09:07:12;17.50;;;3.92;;
11305;SDS011;5708;50.660;6.778;2023-04-25T09:09:40;11.07;;;3.22;;
11305;SDS011;5708;50.660;6.778;2023-04-25T09:12:05;11.98;;;3.67;;
11305;SDS011;5708;50.660;6.778;2023-04-25T09:14:31;17.13;;;4.22;;
11305;SDS011;5708;50.660;6.778;2023-04-25T09:19:26;15.63;;;3.70;;
11305;SDS011;5708;50.660;6.778;2023-04-25T09:21:55;15.60;;;3.83;;
11305;SDS011;5708;50.660;6.778;2023-04-25T09:24:31;17.85;;;4.07;;
11305;SDS011;5708;50.660;6.778;2023-04-25T09:26:57;16.88;;;5.00;;
11305;SDS011;5708;50.660;6.778;2023-04-25T09:29:28;17.83;;;4.18;;
11305;SDS011;5708;50.660;6.778;2023-04-25T09:32:43;16.92;;;4.32;;
11305;SDS011;5708;50.660;6.778;2023-04-25T09:34:44;16.65;;;3.83;;
11305;SDS011;5708;50.660;6.778;2023-04-25T09:37:18;16.42;;;3.88;;
11305;SDS011;5708;50.660;6.778;2023-04-25T09:39:55;14.75;;;3.08;;
11305;SDS011;5708;50.660;6.778;2023-04-25T09:42:30;12.75;;;2.90;;
11305;SDS011;5708;50.660;6.778;2023-04-25T09:44:57;13.98;;;2.80;;
11305;SDS011;5708;50.660;6.778;2023-04-25T09:47:26;11.13;;;2.78;;
11305;SDS011;5708;50.660;6.778;2023-04-25T09:49:53;10.52;;;3.17;;
11305;SDS011;5708;50.660;6.778;2023-04-25T09:52:23;11.85;;;3.25;;
11305;SDS011;5708;50.660;6.778;2023-04-25T09:54:49;10.38;;;2.55;;
11305;SDS011;5708;50.660;6.778;2023-04-25T09:57:19;13.57;;;3.00;;
11305;SDS011;5708;50.660;6.778;2023-04-25T09:59:47;11.60;;;3.13;;
11305;SDS011;5708;50.660;6.778;2023-04-25T10:02:17;8.68;;;2.30;;
11305;SDS011;5708;50.660;6.778;2023-04-25T10:04:47;14.95;;;3.13;;
11305;SDS011;5708;50.660;6.778;2023-04-25T10:07:14;8.95;;;2.70;;
11305;SDS011;5708;50.660;6.778;2023-04-25T10:09:39;9.90;;;3.00;;
11305;SDS011;5708;50.660;6.778;2023-04-25T10:12:05;15.38;;;2.75;;
11305;SDS011;5708;50.660;6.778;2023-04-25T10:14:32;11.32;;;2.90;;
11305;SDS011;5708;50.660;6.778;2023-04-25T10:16:58;9.82;;;2.50;;
11305;SDS011;5708;50.660;6.778;2023-04-25T10:19:24;12.05;;;2.90;;
11305;SDS011;5708;50.660;6.778;2023-04-25T10:21:52;12.43;;;2.63;;
11305;SDS011;5708;50.660;6.778;2023-04-25T10:24:38;12.63;;;2.90;;
11305;SDS011;5708;50.660;6.778;2023-04-25T10:27:04;13.95;;;2.83;;
11305;SDS011;5708;50.660;6.778;2023-04-25T10:29:30;10.32;;;2.67;;
11305;SDS011;5708;50.660;6.778;2023-04-25T10:31:55;12.50;;;3.13;;
11305;SDS011;5708;50.660;6.778;2023-04-25T10:34:41;13.55;;;2.60;;
11305;SDS011;5708;50.660;6.778;2023-04-25T10:37:10;10.68;;;2.53;;
11305;SDS011;5708;50.660;6.778;2023-04-25T10:39:36;15.93;;;2.85;;
11305;SDS011;5708;50.660;6.778;2023-04-25T10:42:06;12.55;;;2.67;;
11305;SDS011;5708;50.660;6.778;2023-04-25T10:44:33;11.70;;;2.70;;
11305;SDS011;5708;50.660;6.778;2023-04-25T10:47:00;12.20;;;3.22;;
11305;SDS011;5708;50.660;6.778;2023-04-25T10:49:33;9.98;;;2.92;;
11305;SDS011;5708;50.660;6.778;2023-04-25T10:55:02;13.30;;;2.88;;
11305;SDS011;5708;50.660;6.778;2023-04-25T11:02:30;16.00;;;3.75;;
11305;SDS011;5708;50.660;6.778;2023-04-25T11:04:56;11.10;;;3.03;;
11305;SDS011;5708;50.660;6.778;2023-04-25T11:07:38;12.60;;;2.88;;
11305;SDS011;5708;50.660;6.778;2023-04-25T11:10:15;13.93;;;3.50;;
11305;SDS011;5708;50.660;6.778;2023-04-25T11:12:41;10.75;;;3.10;;
11305;SDS011;5708;50.660;6.778;2023-04-25T11:15:06;14.02;;;3.10;;
11305;SDS011;5708;50.660;6.778;2023-04-25T11:17:32;11.80;;;2.65;;
11305;SDS011;5708;50.660;6.778;2023-04-25T11:19:58;13.55;;;3.55;;
11305;SDS011;5708;50.660;6.778;2023-04-25T11:22:24;9.93;;;3.30;;
11305;SDS011;5708;50.660;6.778;2023-04-25T11:24:52;10.57;;;2.95;;
11305;SDS011;5708;50.660;6.778;2023-04-25T11:27:17;13.10;;;3.15;;
11305;SDS011;5708;50.660;6.778;2023-04-25T11:29:43;10.18;;;3.05;;
11305;SDS011;5708;50.660;6.778;2023-04-25T11:32:08;11.65;;;3.40;;
11305;SDS011;5708;50.660;6.778;2023-04-25T11:34:34;11.15;;;3.05;;
11305;SDS011;5708;50.660;6.778;2023-04-25T11:37:00;12.63;;;3.38;;
11305;SDS011;5708;50.660;6.778;2023-04-25T11:39:26;11.90;;;2.70;;
11305;SDS011;5708;50.660;6.778;2023-04-25T11:41:52;15.20;;;2.83;;
11305;SDS011;5708;50.660;6.778;2023-04-25T11:44:18;11.10;;;3.30;;
11305;SDS011;5708;50.660;6.778;2023-04-25T11:46:44;12.88;;;3.00;;
11305;SDS011;5708;50.660;6.778;2023-04-25T11:49:10;10.23;;;2.72;;
11305;SDS011;5708;50.660;6.778;2023-04-25T11:54:05;9.52;;;2.83;;
11305;SDS011;5708;50.660;6.778;2023-04-25T11:56:31;9.90;;;2.47;;
11305;SDS011;5708;50.660;6.778;2023-04-25T11:59:00;11.60;;;3.08;;
11305;SDS011;5708;50.660;6.778;2023-04-25T12:01:37;8.60;;;2.58;;
11305;SDS011;5708;50.660;6.778;2023-04-25T12:04:16;12.10;;;3.08;;
11305;SDS011;5708;50.660;6.778;2023-04-25T12:06:43;18.95;;;3.53;;
11305;SDS011;5708;50.660;6.778;2023-04-25T12:09:12;11.35;;;2.90;;
11305;SDS011;5708;50.660;6.778;2023-04-25T12:11:44;8.88;;;2.80;;
11305;SDS011;5708;50.660;6.778;2023-04-25T12:14:11;12.77;;;3.10;;
11305;SDS011;5708;50.660;6.778;2023-04-25T12:16:44;11.43;;;2.92;;
11305;SDS011;5708;50.660;6.778;2023-04-25T12:19:14;11.65;;;2.65;;
11305;SDS011;5708;50.660;6.778;2023-04-25T12:21:40;16.08;;;3.80;;
11305;SDS011;5708;50.660;6.778;2023-04-25T12:24:24;10.45;;;2.85;;
11305;SDS011;5708;50.660;6.778;2023-04-25T12:29:28;13.50;;;3.30;;
11305;SDS011;5708;50.660;6.778;2023-04-25T12:31:54;9.32;;;2.53;;
11305;SDS011;5708;50.660;6.778;2023-04-25T12:34:21;13.32;;;3.10;;
11305;SDS011;5708;50.660;6.778;2023-04-25T12:36:47;12.52;;;2.75;;
11305;SDS011;5708;50.660;6.778;2023-04-25T12:39:16;7.93;;;2.60;;
11305;SDS011;5708;50.660;6.778;2023-04-25T12:41:46;13.57;;;3.33;;
11305;SDS011;5708;50.660;6.778;2023-04-25T12:44:12;11.18;;;2.55;;
11305;SDS011;5708;50.660;6.778;2023-04-25T12:46:38;9.00;;;2.40;;
11305;SDS011;5708;50.660;6.778;2023-04-25T12:49:05;8.50;;;2.55;;
11305;SDS011;5708;50.660;6.778;2023-04-25T12:51:32;14.88;;;3.28;;
11305;SDS011;5708;50.660;6.778;2023-04-25T12:53:58;12.75;;;2.97;;
11305;SDS011;5708;50.660;6.778;2023-04-25T12:56:27;10.23;;;2.72;;
11305;SDS011;5708;50.660;6.778;2023-04-25T12:58:53;8.90;;;3.00;;
11305;SDS011;5708;50.660;6.778;2023-04-25T13:01:19;7.35;;;2.78;;
11305;SDS011;5708;50.660;6.778;2023-04-25T13:03:45;14.80;;;3.35;;
11305;SDS011;5708;50.660;6.778;2023-04-25T13:06:11;10.02;;;2.60;;
11305;SDS011;5708;50.660;6.778;2023-04-25T13:08:38;9.90;;;2.42;;
11305;SDS011;5708;50.660;6.778;2023-04-25T13:11:04;8.50;;;2.47;;
11305;SDS011;5708;50.660;6.778;2023-04-25T13:13:29;11.43;;;3.00;;
11305;SDS011;5708;50.660;6.778;2023-04-25T13:15:56;9.27;;;2.55;;
11305;SDS011;5708;50.660;6.778;2023-04-25T13:18:22;8.88;;;2.20;;
11305;SDS011;5708;50.660;6.778;2023-04-25T13:20:51;10.25;;;2.67;;
11305;SDS011;5708;50.660;6.778;2023-04-25T13:23:17;11.07;;;3.00;;
11305;SDS011;5708;50.660;6.778;2023-04-25T13:25:42;8.20;;;2.55;;
11305;SDS011;5708;50.660;6.778;2023-04-25T13:28:07;11.43;;;2.38;;
11305;SDS011;5708;50.660;6.778;2023-04-25T13:30:33;9.38;;;2.67;;
11305;SDS011;5708;50.660;6.778;2023-04-25T13:32:59;9.77;;;2.67;;
11305;SDS011;5708;50.660;6.778;2023-04-25T13:35:28;10.77;;;2.78;;
11305;SDS011;5708;50.660;6.778;2023-04-25T13:37:54;14.35;;;2.95;;
11305;SDS011;5708;50.660;6.778;2023-04-25T13:40:19;12.60;;;3.13;;
11305;SDS011;5708;50.660;6.778;2023-04-25T13:42:45;10.63;;;2.80;;
11305;SDS011;5708;50.660;6.778;2023-04-25T13:45:10;9.40;;;2.13;;
11305;SDS011;5708;50.660;6.778;2023-04-25T13:47:39;6.18;;;2.08;;
11305;SDS011;5708;50.660;6.778;2023-04-25T13:50:05;8.48;;;2.10;;
11305;SDS011;5708;50.660;6.778;2023-04-25T13:52:32;9.20;;;2.10;;
11305;SDS011;5708;50.660;6.778;2023-04-25T13:54:58;7.38;;;2.00;;
11305;SDS011;5708;50.660;6.778;2023-04-25T13:57:23;12.57;;;2.20;;
11305;SDS011;5708;50.660;6.778;2023-04-25T13:59:49;10.88;;;2.45;;
11305;SDS011;5708;50.660;6.778;2023-04-25T14:02:15;9.55;;;2.33;;
11305;SDS011;5708;50.660;6.778;2023-04-25T14:04:41;7.68;;;2.20;;
11305;SDS011;5708;50.660;6.778;2023-04-25T14:07:07;11.30;;;1.98;;
11305;SDS011;5708;50.660;6.778;2023-04-25T14:09:33;8.82;;;2.10;;
11305;SDS011;5708;50.660;6.778;2023-04-25T14:11:59;6.50;;;1.90;;
11305;SDS011;5708;50.660;6.778;2023-04-25T14:14:25;10.13;;;2.28;;
11305;SDS011;5708;50.660;6.778;2023-04-25T14:16:51;10.40;;;2.25;;
11305;SDS011;5708;50.660;6.778;2023-04-25T14:19:18;5.65;;;1.98;;
11305;SDS011;5708;50.660;6.778;2023-04-25T14:21:44;10.82;;;2.30;;
11305;SDS011;5708;50.660;6.778;2023-04-25T14:24:11;9.70;;;2.40;;
11305;SDS011;5708;50.660;6.778;2023-04-25T14:26:36;10.27;;;2.33;;
11305;SDS011;5708;50.660;6.778;2023-04-25T14:29:03;8.63;;;2.05;;
11305;SDS011;5708;50.660;6.778;2023-04-25T14:31:29;7.47;;;2.33;;
11305;SDS011;5708;50.660;6.778;2023-04-25T14:33:54;9.57;;;2.13;;
11305;SDS011;5708;50.660;6.778;2023-04-25T14:36:20;12.73;;;2.63;;
11305;SDS011;5708;50.660;6.778;2023-04-25T14:38:46;12.98;;;2.55;;
11305;SDS011;5708;50.660;6.778;2023-04-25T14:41:11;8.15;;;2.42;;
11305;SDS011;5708;50.660;6.778;2023-04-25T14:43:37;6.57;;;2.60;;
11305;SDS011;5708;50.660;6.778;2023-04-25T14:46:02;7.88;;;2.67;;
11305;SDS011;5708;50.660;6.778;2023-04-25T14:48:28;10.98;;;2.92;;
11305;SDS011;5708;50.660;6.778;2023-04-25T14:50:54;8.98;;;2.55;;
11305;SDS011;5708;50.660;6.778;2023-04-25T14:53:21;7.25;;;2.30;;
11305;SDS011;5708;50.660;6.778;2023-04-25T14:55:47;7.15;;;1.60;;
11305;SDS011;5708;50.660;6.778;2023-04-25T14:58:13;6.68;;;2.10;;
11305;SDS011;5708;50.660;6.778;2023-04-25T15:00:39;7.30;;;1.75;;
11305;SDS011;5708;50.660;6.778;2023-04-25T15:03:04;6.75;;;1.75;;